sensor_id;sensor_type;location;lat;lon;timestamp;P1;durP1;ratioP1;P2;durP2;ratioP2
29954;SDS011;68448;51.188;6.868;2023-04-19T00:01:10;18.40;;;15.03;;
29954;SDS011;68448;51.188;6.868;2023-04-19T00:03:38;18.67;;;14.50;;
29954;SDS011;68448;51.188;6.868;2023-04-19T00:06:05;20.67;;;14.73;;
29954;SDS011;68448;51.188;6.868;2023-04-19T00:08:33;20.50;;;15.03;;
29954;SDS011;68448;51.188;6.868;2023-04-19T00:11:00;23.30;;;14.70;;
29954;SDS011;68448;51.188;6.868;2023-04-19T00:13:27;21.03;;;15.13;;
29954;SDS011;68448;51.188;6.868;2023-04-19T00:15:54;20.83;;;15.20;;
29954;SDS011;68448;51.188;6.868;2023-04-19T00:18:22;22.13;;;14.80;;
29954;SDS011;68448;51.188;6.868;2023-04-19T00:20:50;19.90;;;14.90;;
29954;SDS011;68448;51.188;6.868;2023-04-19T00:23:17;19.40;;;14.73;;
29954;SDS011;68448;51.188;6.868;2023-04-19T00:25:44;19.97;;;13.90;;
29954;SDS011;68448;51.188;6.868;2023-04-19T00:28:12;16.00;;;13.80;;
29954;SDS011;68448;51.188;6.868;2023-04-19T00:30:41;17.33;;;13.60;;
29954;SDS011;68448;51.188;6.868;2023-04-19T00:33:09;21.60;;;14.20;;
29954;SDS011;68448;51.188;6.868;2023-04-19T00:35:37;24.03;;;15.27;;
29954;SDS011;68448;51.188;6.868;2023-04-19T00:38:05;17.73;;;13.77;;
29954;SDS011;68448;51.188;6.868;2023-04-19T00:40:32;20.10;;;14.30;;
29954;SDS011;68448;51.188;6.868;2023-04-19T00:43:02;20.53;;;15.27;;
29954;SDS011;68448;51.188;6.868;2023-04-19T00:45:29;18.13;;;13.77;;
29954;SDS011;68448;51.188;6.868;2023-04-19T00:47:58;23.93;;;14.57;;
29954;SDS011;68448;51.188;6.868;2023-04-19T00:50:26;19.20;;;14.43;;
29954;SDS011;68448;51.188;6.868;2023-04-19T00:52:56;22.70;;;15.10;;
29954;SDS011;68448;51.188;6.868;2023-04-19T00:55:24;20.70;;;14.27;;
29954;SDS011;68448;51.188;6.868;2023-04-19T00:57:51;22.63;;;14.80;;
29954;SDS011;68448;51.188;6.868;2023-04-19T01:00:18;20.00;;;14.83;;
29954;SDS011;68448;51.188;6.868;2023-04-19T01:02:45;18.40;;;14.13;;
29954;SDS011;68448;51.188;6.868;2023-04-19T01:05:13;20.60;;;15.13;;
29954;SDS011;68448;51.188;6.868;2023-04-19T01:07:40;24.80;;;15.50;;
29954;SDS011;68448;51.188;6.868;2023-04-19T01:10:09;23.17;;;14.40;;
29954;SDS011;68448;51.188;6.868;2023-04-19T01:12:36;19.43;;;14.23;;
29954;SDS011;68448;51.188;6.868;2023-04-19T01:15:04;20.67;;;15.03;;
29954;SDS011;68448;51.188;6.868;2023-04-19T01:17:31;27.07;;;15.70;;
29954;SDS011;68448;51.188;6.868;2023-04-19T01:19:59;22.83;;;15.30;;
29954;SDS011;68448;51.188;6.868;2023-04-19T01:22:27;26.40;;;15.73;;
29954;SDS011;68448;51.188;6.868;2023-04-19T01:24:54;22.17;;;15.07;;
29954;SDS011;68448;51.188;6.868;2023-04-19T01:27:21;22.57;;;14.47;;
29954;SDS011;68448;51.188;6.868;2023-04-19T01:29:49;18.47;;;14.03;;
29954;SDS011;68448;51.188;6.868;2023-04-19T01:32:16;23.10;;;14.20;;
29954;SDS011;68448;51.188;6.868;2023-04-19T01:34:43;19.10;;;14.33;;
29954;SDS011;68448;51.188;6.868;2023-04-19T01:37:10;21.77;;;14.70;;
29954;SDS011;68448;51.188;6.868;2023-04-19T01:39:41;20.40;;;14.40;;
29954;SDS011;68448;51.188;6.868;2023-04-19T01:42:08;17.27;;;14.13;;
29954;SDS011;68448;51.188;6.868;2023-04-19T01:44:35;20.90;;;13.97;;
29954;SDS011;68448;51.188;6.868;2023-04-19T01:47:03;23.53;;;15.70;;
29954;SDS011;68448;51.188;6.868;2023-04-19T01:49:31;25.90;;;16.40;;
29954;SDS011;68448;51.188;6.868;2023-04-19T01:51:58;19.97;;;14.07;;
29954;SDS011;68448;51.188;6.868;2023-04-19T01:54:25;19.50;;;15.10;;
29954;SDS011;68448;51.188;6.868;2023-04-19T01:56:54;18.50;;;14.23;;
29954;SDS011;68448;51.188;6.868;2023-04-19T01:59:21;23.90;;;15.27;;
29954;SDS011;68448;51.188;6.868;2023-04-19T02:01:49;20.57;;;14.43;;
29954;SDS011;68448;51.188;6.868;2023-04-19T02:04:17;25.57;;;14.03;;
29954;SDS011;68448;51.188;6.868;2023-04-19T02:06:44;18.80;;;14.00;;
29954;SDS011;68448;51.188;6.868;2023-04-19T02:09:11;22.00;;;14.50;;
29954;SDS011;68448;51.188;6.868;2023-04-19T02:11:40;22.67;;;15.70;;
29954;SDS011;68448;51.188;6.868;2023-04-19T02:14:09;25.37;;;15.50;;
29954;SDS011;68448;51.188;6.868;2023-04-19T02:16:36;19.90;;;14.10;;
29954;SDS011;68448;51.188;6.868;2023-04-19T02:19:03;20.10;;;15.17;;
29954;SDS011;68448;51.188;6.868;2023-04-19T02:21:31;26.80;;;15.30;;
29954;SDS011;68448;51.188;6.868;2023-04-19T02:23:58;25.10;;;16.10;;
29954;SDS011;68448;51.188;6.868;2023-04-19T02:26:26;19.23;;;15.10;;
29954;SDS011;68448;51.188;6.868;2023-04-19T02:28:53;20.97;;;14.43;;
29954;SDS011;68448;51.188;6.868;2023-04-19T02:31:21;22.60;;;15.67;;
29954;SDS011;68448;51.188;6.868;2023-04-19T02:33:48;20.00;;;15.00;;
29954;SDS011;68448;51.188;6.868;2023-04-19T02:36:15;19.50;;;13.40;;
29954;SDS011;68448;51.188;6.868;2023-04-19T02:38:42;21.87;;;15.50;;
29954;SDS011;68448;51.188;6.868;2023-04-19T02:41:11;23.60;;;14.80;;
29954;SDS011;68448;51.188;6.868;2023-04-19T02:43:38;25.50;;;15.17;;
29954;SDS011;68448;51.188;6.868;2023-04-19T02:46:05;24.53;;;16.03;;
29954;SDS011;68448;51.188;6.868;2023-04-19T02:48:34;23.30;;;16.07;;
29954;SDS011;68448;51.188;6.868;2023-04-19T02:51:01;22.17;;;15.53;;
29954;SDS011;68448;51.188;6.868;2023-04-19T02:53:28;23.57;;;14.23;;
29954;SDS011;68448;51.188;6.868;2023-04-19T02:55:56;21.47;;;14.90;;
29954;SDS011;68448;51.188;6.868;2023-04-19T02:58:23;25.67;;;16.57;;
29954;SDS011;68448;51.188;6.868;2023-04-19T03:00:57;23.90;;;15.20;;
29954;SDS011;68448;51.188;6.868;2023-04-19T03:03:25;22.93;;;15.37;;
29954;SDS011;68448;51.188;6.868;2023-04-19T03:05:53;22.63;;;13.70;;
29954;SDS011;68448;51.188;6.868;2023-04-19T03:08:21;20.20;;;14.90;;
29954;SDS011;68448;51.188;6.868;2023-04-19T03:10:48;23.73;;;15.00;;
29954;SDS011;68448;51.188;6.868;2023-04-19T03:13:15;22.23;;;15.43;;
29954;SDS011;68448;51.188;6.868;2023-04-19T03:15:42;21.43;;;14.87;;
29954;SDS011;68448;51.188;6.868;2023-04-19T03:18:10;22.20;;;14.70;;
29954;SDS011;68448;51.188;6.868;2023-04-19T03:20:40;22.53;;;16.50;;
29954;SDS011;68448;51.188;6.868;2023-04-19T03:23:08;19.93;;;14.83;;
29954;SDS011;68448;51.188;6.868;2023-04-19T03:25:35;23.47;;;15.10;;
29954;SDS011;68448;51.188;6.868;2023-04-19T03:28:38;23.53;;;16.10;;
29954;SDS011;68448;51.188;6.868;2023-04-19T03:31:23;19.90;;;14.30;;
29954;SDS011;68448;51.188;6.868;2023-04-19T03:33:52;25.40;;;14.77;;
29954;SDS011;68448;51.188;6.868;2023-04-19T03:36:24;22.00;;;15.57;;
29954;SDS011;68448;51.188;6.868;2023-04-19T03:38:53;17.07;;;12.73;;
29954;SDS011;68448;51.188;6.868;2023-04-19T03:41:21;19.20;;;14.70;;
29954;SDS011;68448;51.188;6.868;2023-04-19T03:44:05;19.50;;;14.57;;
29954;SDS011;68448;51.188;6.868;2023-04-19T03:46:32;18.33;;;13.73;;
29954;SDS011;68448;51.188;6.868;2023-04-19T03:49:00;21.17;;;13.73;;
29954;SDS011;68448;51.188;6.868;2023-04-19T03:51:28;18.80;;;14.33;;
29954;SDS011;68448;51.188;6.868;2023-04-19T03:53:56;24.33;;;14.10;;
29954;SDS011;68448;51.188;6.868;2023-04-19T03:56:23;25.97;;;15.30;;
29954;SDS011;68448;51.188;6.868;2023-04-19T03:58:51;19.40;;;12.87;;
29954;SDS011;68448;51.188;6.868;2023-04-19T04:01:18;19.83;;;13.17;;
29954;SDS011;68448;51.188;6.868;2023-04-19T04:03:47;17.60;;;13.40;;
29954;SDS011;68448;51.188;6.868;2023-04-19T04:06:15;24.03;;;13.17;;
29954;SDS011;68448;51.188;6.868;2023-04-19T04:08:43;18.80;;;12.70;;
29954;SDS011;68448;51.188;6.868;2023-04-19T04:11:11;16.73;;;11.50;;
29954;SDS011;68448;51.188;6.868;2023-04-19T04:13:39;20.40;;;13.40;;
29954;SDS011;68448;51.188;6.868;2023-04-19T04:16:11;20.20;;;12.60;;
29954;SDS011;68448;51.188;6.868;2023-04-19T04:18:39;18.00;;;12.03;;
29954;SDS011;68448;51.188;6.868;2023-04-19T04:21:09;16.37;;;10.90;;
29954;SDS011;68448;51.188;6.868;2023-04-19T04:23:39;13.63;;;10.80;;
29954;SDS011;68448;51.188;6.868;2023-04-19T04:26:12;11.77;;;8.60;;
29954;SDS011;68448;51.188;6.868;2023-04-19T04:28:58;12.60;;;9.50;;
29954;SDS011;68448;51.188;6.868;2023-04-19T04:31:25;12.70;;;9.27;;
29954;SDS011;68448;51.188;6.868;2023-04-19T04:33:52;13.00;;;9.63;;
29954;SDS011;68448;51.188;6.868;2023-04-19T04:36:20;15.13;;;9.80;;
29954;SDS011;68448;51.188;6.868;2023-04-19T04:38:49;14.47;;;9.87;;
29954;SDS011;68448;51.188;6.868;2023-04-19T04:41:17;13.53;;;8.50;;
29954;SDS011;68448;51.188;6.868;2023-04-19T04:43:47;16.10;;;8.70;;
29954;SDS011;68448;51.188;6.868;2023-04-19T04:46:34;10.13;;;7.37;;
29954;SDS011;68448;51.188;6.868;2023-04-19T04:49:02;11.30;;;7.70;;
29954;SDS011;68448;51.188;6.868;2023-04-19T04:51:29;10.07;;;7.10;;
29954;SDS011;68448;51.188;6.868;2023-04-19T04:53:57;10.27;;;7.80;;
29954;SDS011;68448;51.188;6.868;2023-04-19T04:56:27;10.30;;;7.37;;
29954;SDS011;68448;51.188;6.868;2023-04-19T04:58:54;11.53;;;8.13;;
29954;SDS011;68448;51.188;6.868;2023-04-19T05:01:27;11.07;;;7.23;;
29954;SDS011;68448;51.188;6.868;2023-04-19T05:03:54;15.60;;;7.23;;
29954;SDS011;68448;51.188;6.868;2023-04-19T05:06:22;9.63;;;7.70;;
29954;SDS011;68448;51.188;6.868;2023-04-19T05:08:50;10.07;;;7.10;;
29954;SDS011;68448;51.188;6.868;2023-04-19T05:11:31;11.07;;;6.87;;
29954;SDS011;68448;51.188;6.868;2023-04-19T05:13:59;9.33;;;6.60;;
29954;SDS011;68448;51.188;6.868;2023-04-19T05:16:26;10.07;;;7.17;;
29954;SDS011;68448;51.188;6.868;2023-04-19T05:18:54;13.47;;;7.43;;
29954;SDS011;68448;51.188;6.868;2023-04-19T05:21:22;8.53;;;6.70;;
29954;SDS011;68448;51.188;6.868;2023-04-19T05:23:49;9.90;;;6.67;;
29954;SDS011;68448;51.188;6.868;2023-04-19T05:26:16;11.43;;;7.80;;
29954;SDS011;68448;51.188;6.868;2023-04-19T05:28:46;12.03;;;6.23;;
29954;SDS011;68448;51.188;6.868;2023-04-19T05:31:36;11.00;;;6.43;;
29954;SDS011;68448;51.188;6.868;2023-04-19T05:34:28;9.47;;;5.83;;
29954;SDS011;68448;51.188;6.868;2023-04-19T05:36:56;9.63;;;6.53;;
29954;SDS011;68448;51.188;6.868;2023-04-19T05:39:24;7.20;;;6.40;;
29954;SDS011;68448;51.188;6.868;2023-04-19T05:41:51;9.63;;;6.73;;
29954;SDS011;68448;51.188;6.868;2023-04-19T05:44:19;10.90;;;6.50;;
29954;SDS011;68448;51.188;6.868;2023-04-19T05:46:47;11.70;;;6.97;;
29954;SDS011;68448;51.188;6.868;2023-04-19T05:49:25;11.10;;;6.33;;
29954;SDS011;68448;51.188;6.868;2023-04-19T05:52:11;17.97;;;6.53;;
29954;SDS011;68448;51.188;6.868;2023-04-19T05:54:44;7.50;;;6.10;;
29954;SDS011;68448;51.188;6.868;2023-04-19T05:57:11;11.57;;;6.10;;
29954;SDS011;68448;51.188;6.868;2023-04-19T05:59:39;10.07;;;6.20;;
29954;SDS011;68448;51.188;6.868;2023-04-19T06:02:07;8.07;;;6.43;;
29954;SDS011;68448;51.188;6.868;2023-04-19T06:04:34;6.43;;;5.47;;
29954;SDS011;68448;51.188;6.868;2023-04-19T06:07:02;10.23;;;6.47;;
29954;SDS011;68448;51.188;6.868;2023-04-19T06:09:33;8.97;;;6.17;;
29954;SDS011;68448;51.188;6.868;2023-04-19T06:12:00;8.37;;;5.90;;
29954;SDS011;68448;51.188;6.868;2023-04-19T06:14:28;10.70;;;6.37;;
29954;SDS011;68448;51.188;6.868;2023-04-19T06:16:57;7.53;;;5.57;;
29954;SDS011;68448;51.188;6.868;2023-04-19T06:19:24;7.77;;;5.60;;
29954;SDS011;68448;51.188;6.868;2023-04-19T06:21:51;6.67;;;5.10;;
29954;SDS011;68448;51.188;6.868;2023-04-19T06:24:18;8.50;;;6.47;;
29954;SDS011;68448;51.188;6.868;2023-04-19T06:26:45;7.20;;;5.40;;
29954;SDS011;68448;51.188;6.868;2023-04-19T06:29:12;7.00;;;6.00;;
29954;SDS011;68448;51.188;6.868;2023-04-19T06:31:39;5.63;;;5.03;;
29954;SDS011;68448;51.188;6.868;2023-04-19T06:34:08;8.10;;;6.33;;
29954;SDS011;68448;51.188;6.868;2023-04-19T06:36:35;8.97;;;6.20;;
29954;SDS011;68448;51.188;6.868;2023-04-19T06:39:02;9.50;;;5.57;;
29954;SDS011;68448;51.188;6.868;2023-04-19T06:41:29;7.63;;;5.57;;
29954;SDS011;68448;51.188;6.868;2023-04-19T06:43:56;7.50;;;5.80;;
29954;SDS011;68448;51.188;6.868;2023-04-19T06:46:23;7.70;;;5.80;;
29954;SDS011;68448;51.188;6.868;2023-04-19T06:48:50;10.53;;;6.90;;
29954;SDS011;68448;51.188;6.868;2023-04-19T06:51:19;10.97;;;6.37;;
29954;SDS011;68448;51.188;6.868;2023-04-19T06:53:46;8.90;;;6.40;;
29954;SDS011;68448;51.188;6.868;2023-04-19T06:56:13;8.23;;;5.53;;
29954;SDS011;68448;51.188;6.868;2023-04-19T06:58:40;9.40;;;5.87;;
29954;SDS011;68448;51.188;6.868;2023-04-19T07:01:07;11.17;;;6.27;;
29954;SDS011;68448;51.188;6.868;2023-04-19T07:03:35;10.47;;;7.07;;
29954;SDS011;68448;51.188;6.868;2023-04-19T07:06:02;8.60;;;5.80;;
29954;SDS011;68448;51.188;6.868;2023-04-19T07:08:31;10.80;;;5.73;;
29954;SDS011;68448;51.188;6.868;2023-04-19T07:11:14;8.38;;;6.95;;
29954;SDS011;68448;51.188;6.868;2023-04-19T07:13:42;12.63;;;7.13;;
29954;SDS011;68448;51.188;6.868;2023-04-19T07:16:09;9.63;;;6.67;;
29954;SDS011;68448;51.188;6.868;2023-04-19T07:18:36;9.37;;;6.47;;
29954;SDS011;68448;51.188;6.868;2023-04-19T07:21:03;8.03;;;6.33;;
29954;SDS011;68448;51.188;6.868;2023-04-19T07:23:32;11.90;;;6.77;;
29954;SDS011;68448;51.188;6.868;2023-04-19T07:25:59;9.43;;;6.20;;
29954;SDS011;68448;51.188;6.868;2023-04-19T07:28:27;8.37;;;6.23;;
29954;SDS011;68448;51.188;6.868;2023-04-19T07:30:54;8.43;;;6.47;;
29954;SDS011;68448;51.188;6.868;2023-04-19T07:33:21;8.93;;;5.83;;
29954;SDS011;68448;51.188;6.868;2023-04-19T07:35:52;9.70;;;6.40;;
29954;SDS011;68448;51.188;6.868;2023-04-19T07:38:19;11.30;;;6.40;;
29954;SDS011;68448;51.188;6.868;2023-04-19T07:40:48;7.70;;;6.07;;
29954;SDS011;68448;51.188;6.868;2023-04-19T07:43:15;7.80;;;6.17;;
29954;SDS011;68448;51.188;6.868;2023-04-19T07:45:42;12.07;;;6.70;;
29954;SDS011;68448;51.188;6.868;2023-04-19T07:48:09;8.53;;;6.43;;
29954;SDS011;68448;51.188;6.868;2023-04-19T07:50:38;9.27;;;6.80;;
29954;SDS011;68448;51.188;6.868;2023-04-19T07:53:06;7.43;;;6.30;;
29954;SDS011;68448;51.188;6.868;2023-04-19T07:55:33;8.60;;;6.30;;
29954;SDS011;68448;51.188;6.868;2023-04-19T07:58:01;8.77;;;6.00;;
29954;SDS011;68448;51.188;6.868;2023-04-19T08:00:28;9.03;;;5.70;;
29954;SDS011;68448;51.188;6.868;2023-04-19T08:02:55;12.57;;;6.73;;
29954;SDS011;68448;51.188;6.868;2023-04-19T08:05:23;9.17;;;6.00;;
29954;SDS011;68448;51.188;6.868;2023-04-19T08:07:50;7.77;;;4.80;;
29954;SDS011;68448;51.188;6.868;2023-04-19T08:10:18;8.43;;;6.07;;
29954;SDS011;68448;51.188;6.868;2023-04-19T08:12:47;7.23;;;5.60;;
29954;SDS011;68448;51.188;6.868;2023-04-19T08:15:31;9.87;;;6.77;;
29954;SDS011;68448;51.188;6.868;2023-04-19T08:18:01;8.30;;;6.13;;
29954;SDS011;68448;51.188;6.868;2023-04-19T08:20:28;8.70;;;6.00;;
29954;SDS011;68448;51.188;6.868;2023-04-19T08:22:55;8.83;;;5.70;;
29954;SDS011;68448;51.188;6.868;2023-04-19T08:25:25;10.43;;;6.83;;
29954;SDS011;68448;51.188;6.868;2023-04-19T08:27:53;11.10;;;5.13;;
29954;SDS011;68448;51.188;6.868;2023-04-19T08:30:20;7.10;;;5.33;;
29954;SDS011;68448;51.188;6.868;2023-04-19T08:32:48;8.63;;;5.90;;
29954;SDS011;68448;51.188;6.868;2023-04-19T08:35:16;7.70;;;4.80;;
29954;SDS011;68448;51.188;6.868;2023-04-19T08:37:43;5.90;;;4.77;;
29954;SDS011;68448;51.188;6.868;2023-04-19T08:40:10;8.80;;;4.87;;
29954;SDS011;68448;51.188;6.868;2023-04-19T08:42:37;6.87;;;4.80;;
29954;SDS011;68448;51.188;6.868;2023-04-19T08:45:05;6.47;;;4.60;;
29954;SDS011;68448;51.188;6.868;2023-04-19T08:47:35;6.87;;;5.00;;
29954;SDS011;68448;51.188;6.868;2023-04-19T08:50:23;8.60;;;4.00;;
29954;SDS011;68448;51.188;6.868;2023-04-19T08:53:03;12.03;;;5.77;;
29954;SDS011;68448;51.188;6.868;2023-04-19T08:55:50;5.70;;;4.60;;
29954;SDS011;68448;51.188;6.868;2023-04-19T08:58:33;6.90;;;4.43;;
29954;SDS011;68448;51.188;6.868;2023-04-19T09:01:04;6.40;;;4.50;;
29954;SDS011;68448;51.188;6.868;2023-04-19T09:03:31;4.77;;;3.87;;
29954;SDS011;68448;51.188;6.868;2023-04-19T09:06:18;6.73;;;4.80;;
29954;SDS011;68448;51.188;6.868;2023-04-19T09:08:45;5.30;;;4.13;;
29954;SDS011;68448;51.188;6.868;2023-04-19T09:11:12;5.13;;;4.00;;
29954;SDS011;68448;51.188;6.868;2023-04-19T09:13:39;6.00;;;4.30;;
29954;SDS011;68448;51.188;6.868;2023-04-19T09:16:06;4.73;;;3.80;;
29954;SDS011;68448;51.188;6.868;2023-04-19T09:18:52;6.30;;;4.20;;
29954;SDS011;68448;51.188;6.868;2023-04-19T09:21:35;5.80;;;4.17;;
29954;SDS011;68448;51.188;6.868;2023-04-19T09:24:02;8.03;;;4.17;;
29954;SDS011;68448;51.188;6.868;2023-04-19T09:26:29;5.80;;;3.60;;
29954;SDS011;68448;51.188;6.868;2023-04-19T09:28:56;7.13;;;4.17;;
29954;SDS011;68448;51.188;6.868;2023-04-19T09:31:23;7.27;;;4.90;;
29954;SDS011;68448;51.188;6.868;2023-04-19T09:34:11;5.63;;;4.80;;
29954;SDS011;68448;51.188;6.868;2023-04-19T09:36:39;5.90;;;3.60;;
29954;SDS011;68448;51.188;6.868;2023-04-19T09:39:07;4.87;;;3.63;;
29954;SDS011;68448;51.188;6.868;2023-04-19T09:41:34;7.13;;;3.83;;
29954;SDS011;68448;51.188;6.868;2023-04-19T09:44:10;4.20;;;3.50;;
29954;SDS011;68448;51.188;6.868;2023-04-19T09:46:57;6.80;;;3.97;;
29954;SDS011;68448;51.188;6.868;2023-04-19T09:49:24;10.30;;;3.87;;
29954;SDS011;68448;51.188;6.868;2023-04-19T09:52:13;4.90;;;3.93;;
29954;SDS011;68448;51.188;6.868;2023-04-19T09:54:40;4.73;;;3.70;;
29954;SDS011;68448;51.188;6.868;2023-04-19T09:57:08;7.70;;;4.10;;
29954;SDS011;68448;51.188;6.868;2023-04-19T09:59:35;5.47;;;3.83;;
29954;SDS011;68448;51.188;6.868;2023-04-19T10:02:02;4.10;;;3.70;;
29954;SDS011;68448;51.188;6.868;2023-04-19T10:04:30;6.00;;;3.57;;
29954;SDS011;68448;51.188;6.868;2023-04-19T10:07:19;7.40;;;3.53;;
29954;SDS011;68448;51.188;6.868;2023-04-19T10:09:50;7.20;;;3.37;;
29954;SDS011;68448;51.188;6.868;2023-04-19T10:12:24;5.47;;;3.70;;
29954;SDS011;68448;51.188;6.868;2023-04-19T10:14:54;3.93;;;3.57;;
29954;SDS011;68448;51.188;6.868;2023-04-19T10:17:21;3.30;;;3.00;;
29954;SDS011;68448;51.188;6.868;2023-04-19T10:19:49;3.50;;;3.00;;
29954;SDS011;68448;51.188;6.868;2023-04-19T10:22:19;3.57;;;2.80;;
29954;SDS011;68448;51.188;6.868;2023-04-19T10:27:44;8.73;;;2.67;;
29954;SDS011;68448;51.188;6.868;2023-04-19T10:30:17;4.07;;;2.93;;
29954;SDS011;68448;51.188;6.868;2023-04-19T10:32:45;6.90;;;2.40;;
29954;SDS011;68448;51.188;6.868;2023-04-19T10:35:16;4.00;;;2.50;;
29954;SDS011;68448;51.188;6.868;2023-04-19T10:43:15;9.60;;;2.37;;
29954;SDS011;68448;51.188;6.868;2023-04-19T10:45:42;2.97;;;2.13;;
29954;SDS011;68448;51.188;6.868;2023-04-19T10:50:58;4.90;;;2.50;;
29954;SDS011;68448;51.188;6.868;2023-04-19T10:56:11;2.63;;;2.10;;
29954;SDS011;68448;51.188;6.868;2023-04-19T11:01:32;5.00;;;2.30;;
29954;SDS011;68448;51.188;6.868;2023-04-19T11:03:59;2.27;;;2.03;;
29954;SDS011;68448;51.188;6.868;2023-04-19T11:06:26;1.93;;;1.80;;
29954;SDS011;68448;51.188;6.868;2023-04-19T11:08:53;3.93;;;2.60;;
29954;SDS011;68448;51.188;6.868;2023-04-19T11:11:21;4.00;;;2.30;;
29954;SDS011;68448;51.188;6.868;2023-04-19T11:13:48;6.50;;;2.42;;
29954;SDS011;68448;51.188;6.868;2023-04-19T11:16:15;3.20;;;2.30;;
29954;SDS011;68448;51.188;6.868;2023-04-19T11:18:46;2.97;;;2.78;;
29954;SDS011;68448;51.188;6.868;2023-04-19T11:21:13;3.15;;;2.47;;
29954;SDS011;68448;51.188;6.868;2023-04-19T11:23:40;3.53;;;2.40;;
29954;SDS011;68448;51.188;6.868;2023-04-19T11:26:08;2.75;;;2.55;;
29954;SDS011;68448;51.188;6.868;2023-04-19T11:28:36;3.63;;;2.70;;
29954;SDS011;68448;51.188;6.868;2023-04-19T11:31:03;4.07;;;2.80;;
29954;SDS011;68448;51.188;6.868;2023-04-19T11:33:31;3.05;;;2.75;;
29954;SDS011;68448;51.188;6.868;2023-04-19T11:36:00;2.70;;;2.50;;
29954;SDS011;68448;51.188;6.868;2023-04-19T11:38:27;4.15;;;3.08;;
29954;SDS011;68448;51.188;6.868;2023-04-19T11:40:58;3.03;;;2.50;;
29954;SDS011;68448;51.188;6.868;2023-04-19T11:43:30;4.18;;;2.70;;
29954;SDS011;68448;51.188;6.868;2023-04-19T11:46:03;3.85;;;2.70;;
29954;SDS011;68448;51.188;6.868;2023-04-19T11:48:30;6.30;;;3.13;;
29954;SDS011;68448;51.188;6.868;2023-04-19T11:50:57;4.80;;;2.65;;
29954;SDS011;68448;51.188;6.868;2023-04-19T11:53:26;2.97;;;2.08;;
29954;SDS011;68448;51.188;6.868;2023-04-19T11:55:54;2.72;;;2.53;;
29954;SDS011;68448;51.188;6.868;2023-04-19T11:58:25;4.72;;;2.90;;
29954;SDS011;68448;51.188;6.868;2023-04-19T12:00:52;3.97;;;2.78;;
29954;SDS011;68448;51.188;6.868;2023-04-19T12:03:19;3.60;;;2.72;;
29954;SDS011;68448;51.188;6.868;2023-04-19T12:05:51;3.83;;;2.95;;
29954;SDS011;68448;51.188;6.868;2023-04-19T12:08:29;3.85;;;2.92;;
29954;SDS011;68448;51.188;6.868;2023-04-19T12:10:57;7.10;;;3.50;;
29954;SDS011;68448;51.188;6.868;2023-04-19T12:13:25;4.18;;;2.53;;
29954;SDS011;68448;51.188;6.868;2023-04-19T12:15:52;4.38;;;2.90;;
29954;SDS011;68448;51.188;6.868;2023-04-19T12:18:19;5.10;;;3.33;;
29954;SDS011;68448;51.188;6.868;2023-04-19T12:20:46;3.42;;;2.63;;
29954;SDS011;68448;51.188;6.868;2023-04-19T12:23:14;4.68;;;2.78;;
29954;SDS011;68448;51.188;6.868;2023-04-19T12:25:43;4.22;;;3.15;;
29954;SDS011;68448;51.188;6.868;2023-04-19T12:28:10;5.75;;;2.80;;
29954;SDS011;68448;51.188;6.868;2023-04-19T12:30:38;5.18;;;3.28;;
29954;SDS011;68448;51.188;6.868;2023-04-19T12:33:05;9.07;;;2.90;;
29954;SDS011;68448;51.188;6.868;2023-04-19T12:35:33;4.20;;;2.80;;
29954;SDS011;68448;51.188;6.868;2023-04-19T12:38:00;5.05;;;3.55;;
29954;SDS011;68448;51.188;6.868;2023-04-19T12:40:27;3.55;;;3.00;;
29954;SDS011;68448;51.188;6.868;2023-04-19T12:42:56;3.35;;;3.05;;
29954;SDS011;68448;51.188;6.868;2023-04-19T12:45:23;3.58;;;3.28;;
29954;SDS011;68448;51.188;6.868;2023-04-19T12:47:50;3.30;;;2.80;;
29954;SDS011;68448;51.188;6.868;2023-04-19T12:50:18;3.40;;;3.10;;
29954;SDS011;68448;51.188;6.868;2023-04-19T12:52:45;3.35;;;3.05;;
29954;SDS011;68448;51.188;6.868;2023-04-19T12:55:12;3.85;;;3.22;;
29954;SDS011;68448;51.188;6.868;2023-04-19T12:57:39;4.25;;;2.55;;
29954;SDS011;68448;51.188;6.868;2023-04-19T13:00:08;7.40;;;3.67;;
29954;SDS011;68448;51.188;6.868;2023-04-19T13:02:35;3.50;;;3.20;;
29954;SDS011;68448;51.188;6.868;2023-04-19T13:05:03;4.05;;;3.22;;
29954;SDS011;68448;51.188;6.868;2023-04-19T13:07:30;3.00;;;2.80;;
29954;SDS011;68448;51.188;6.868;2023-04-19T13:09:57;5.85;;;3.55;;
29954;SDS011;68448;51.188;6.868;2023-04-19T13:12:24;5.32;;;3.83;;
29954;SDS011;68448;51.188;6.868;2023-04-19T13:14:51;4.50;;;3.17;;
29954;SDS011;68448;51.188;6.868;2023-04-19T13:17:20;4.88;;;4.13;;
29954;SDS011;68448;51.188;6.868;2023-04-19T13:19:47;3.47;;;3.17;;
29954;SDS011;68448;51.188;6.868;2023-04-19T13:22:14;4.60;;;3.83;;
29954;SDS011;68448;51.188;6.868;2023-04-19T13:24:41;3.17;;;2.88;;
29954;SDS011;68448;51.188;6.868;2023-04-19T13:27:09;3.88;;;3.30;;
29954;SDS011;68448;51.188;6.868;2023-04-19T13:29:36;6.07;;;3.30;;
29954;SDS011;68448;51.188;6.868;2023-04-19T13:32:03;5.65;;;3.20;;
29954;SDS011;68448;51.188;6.868;2023-04-19T13:34:32;4.97;;;3.47;;
29954;SDS011;68448;51.188;6.868;2023-04-19T13:36:59;4.75;;;3.10;;
29954;SDS011;68448;51.188;6.868;2023-04-19T13:39:26;3.42;;;3.17;;
29954;SDS011;68448;51.188;6.868;2023-04-19T13:41:53;5.53;;;3.45;;
29954;SDS011;68448;51.188;6.868;2023-04-19T13:44:20;8.43;;;3.88;;
29954;SDS011;68448;51.188;6.868;2023-04-19T13:46:47;4.07;;;3.22;;
29954;SDS011;68448;51.188;6.868;2023-04-19T13:49:15;4.03;;;3.55;;
29954;SDS011;68448;51.188;6.868;2023-04-19T13:51:43;4.05;;;3.72;;
29954;SDS011;68448;51.188;6.868;2023-04-19T13:54:16;5.20;;;3.40;;
29954;SDS011;68448;51.188;6.868;2023-04-19T13:56:44;3.65;;;3.30;;
29954;SDS011;68448;51.188;6.868;2023-04-19T13:59:11;4.80;;;3.40;;
29954;SDS011;68448;51.188;6.868;2023-04-19T14:01:39;6.03;;;4.07;;
29954;SDS011;68448;51.188;6.868;2023-04-19T14:04:06;6.18;;;3.72;;
29954;SDS011;68448;51.188;6.868;2023-04-19T14:06:33;4.70;;;4.30;;
29954;SDS011;68448;51.188;6.868;2023-04-19T14:09:02;4.10;;;3.80;;
29954;SDS011;68448;51.188;6.868;2023-04-19T14:11:29;7.97;;;4.50;;
29954;SDS011;68448;51.188;6.868;2023-04-19T14:13:56;5.30;;;4.20;;
29954;SDS011;68448;51.188;6.868;2023-04-19T14:16:23;4.10;;;3.80;;
29954;SDS011;68448;51.188;6.868;2023-04-19T14:18:51;3.92;;;3.63;;
29954;SDS011;68448;51.188;6.868;2023-04-19T14:21:18;4.53;;;4.13;;
29954;SDS011;68448;51.188;6.868;2023-04-19T14:23:45;4.07;;;3.75;;
29954;SDS011;68448;51.188;6.868;2023-04-19T14:26:14;3.20;;;3.00;;
29954;SDS011;68448;51.188;6.868;2023-04-19T14:28:41;4.32;;;3.33;;
29954;SDS011;68448;51.188;6.868;2023-04-19T14:31:08;3.80;;;3.40;;
29954;SDS011;68448;51.188;6.868;2023-04-19T14:33:35;5.57;;;3.42;;
29954;SDS011;68448;51.188;6.868;2023-04-19T14:36:03;3.58;;;3.28;;
29954;SDS011;68448;51.188;6.868;2023-04-19T14:38:30;3.97;;;3.47;;
29954;SDS011;68448;51.188;6.868;2023-04-19T14:40:57;5.97;;;3.58;;
29954;SDS011;68448;51.188;6.868;2023-04-19T14:43:25;6.88;;;3.83;;
29954;SDS011;68448;51.188;6.868;2023-04-19T14:45:53;4.30;;;3.90;;
29954;SDS011;68448;51.188;6.868;2023-04-19T14:48:20;4.15;;;3.20;;
29954;SDS011;68448;51.188;6.868;2023-04-19T14:50:47;3.70;;;3.03;;
29954;SDS011;68448;51.188;6.868;2023-04-19T14:53:14;6.90;;;3.72;;
29954;SDS011;68448;51.188;6.868;2023-04-19T14:55:42;4.15;;;2.90;;
29954;SDS011;68448;51.188;6.868;2023-04-19T14:58:09;7.35;;;3.13;;
29954;SDS011;68448;51.188;6.868;2023-04-19T15:00:37;3.30;;;3.00;;
29954;SDS011;68448;51.188;6.868;2023-04-19T15:03:04;3.85;;;3.33;;
29954;SDS011;68448;51.188;6.868;2023-04-19T15:05:33;5.93;;;3.55;;